createdAt,value
2022-12-08T08:13:47.711Z,25.97
2022-12-08T08:16:18.411Z,23.43
2022-12-08T08:18:51.588Z,27.60
2022-12-08T08:21:44.386Z,18.50
2022-12-08T08:24:10.165Z,21.67
2022-12-08T08:26:38.499Z,24.87
2022-12-08T08:29:13.187Z,21.00
2022-12-08T08:31:41.328Z,21.03
2022-12-08T08:34:10.608Z,18.47
2022-12-08T08:36:39.754Z,17.70
2022-12-08T08:39:08.005Z,13.97
2022-12-08T08:41:36.545Z,15.77
2022-12-08T08:44:04.917Z,12.47
2022-12-08T08:46:34.847Z,13.70
2022-12-08T08:49:03.284Z,16.77
2022-12-08T08:51:32.969Z,16.23
2022-12-08T08:54:01.081Z,13.90
2022-12-08T08:56:32.040Z,15.07
2022-12-08T08:59:00.212Z,16.83
2022-12-08T09:01:29.352Z,18.73
2022-12-08T09:04:01.515Z,14.97
2022-12-08T09:06:29.716Z,20.07
2022-12-08T09:08:57.964Z,19.43
2022-12-08T09:11:26.016Z,20.23
2022-12-08T09:13:55.263Z,20.43
2022-12-08T09:16:24.008Z,14.80
2022-12-08T09:18:55.005Z,13.37
2022-12-08T09:21:27.271Z,14.97
2022-12-08T09:23:57.342Z,21.57
2022-12-08T09:26:26.355Z,17.53
2022-12-08T09:28:56.257Z,15.83
2022-12-08T09:31:27.697Z,20.70
2022-12-08T09:33:55.846Z,15.53
2022-12-08T09:36:25.318Z,13.93
2022-12-08T09:38:54.694Z,15.33
2022-12-08T09:41:40.220Z,16.43
2022-12-08T09:44:39.305Z,14.73
2022-12-08T09:47:23.646Z,18.70
2022-12-08T09:50:00.481Z,12.23
2022-12-08T09:52:36.569Z,15.20
2022-12-08T09:55:12.637Z,9.60
2022-12-08T09:57:40.810Z,9.97
2022-12-08T10:00:15.920Z,13.13
2022-12-08T10:02:46.176Z,11.07
2022-12-08T10:05:16.302Z,10.87
2022-12-08T10:07:49.427Z,9.40
2022-12-08T10:10:28.216Z,12.40
2022-12-08T10:13:04.514Z,9.53
2022-12-08T10:15:43.642Z,12.37
2022-12-08T10:18:17.054Z,14.07
2022-12-08T10:20:55.769Z,12.07
2022-12-08T10:23:34.385Z,10.23
2022-12-08T10:26:04.970Z,11.43
2022-12-08T10:28:36.712Z,12.57
2022-12-08T10:31:07.206Z,13.47
2022-12-08T10:33:35.648Z,10.27
2022-12-08T10:36:04.962Z,14.77
2022-12-08T10:38:36.260Z,14.33
2022-12-08T10:41:08.202Z,10.30
2022-12-08T10:43:39.687Z,10.63
2022-12-08T10:46:13.384Z,17.00
2022-12-08T10:48:50.330Z,9.57
2022-12-08T10:51:27.928Z,11.80
2022-12-08T10:53:57.907Z,10.97
2022-12-08T10:56:28.678Z,15.53
2022-12-08T10:59:12.961Z,12.43
2022-12-08T11:01:42.463Z,10.10
2022-12-08T11:04:16.759Z,15.57
2022-12-08T11:06:45.232Z,10.17
2022-12-08T11:09:35.335Z,10.57
2022-12-08T11:12:09.863Z,13.90
2022-12-08T11:14:49.774Z,12.87
2022-12-08T11:17:24.563Z,9.23
2022-12-08T11:19:58.083Z,13.27
2022-12-08T11:22:28.158Z,11.63
2022-12-08T11:25:02.919Z,12.73
2022-12-08T11:27:31.424Z,13.17
2022-12-08T11:29:59.591Z,10.97
2022-12-08T11:32:27.727Z,11.97
2022-12-08T11:35:01.782Z,10.87
2022-12-08T11:37:35.252Z,9.70
2022-12-08T11:40:09.776Z,11.43
2022-12-08T11:42:49.200Z,9.30
2022-12-08T11:45:22.932Z,6.83
2022-12-08T11:47:58.538Z,7.63
2022-12-08T11:50:31.951Z,10.03
2022-12-08T11:53:02.775Z,9.10
2022-12-08T11:55:40.649Z,8.90
2022-12-08T11:58:17.914Z,10.70
2022-12-08T12:00:46.324Z,10.53
2022-12-08T12:03:23.590Z,10.03
2022-12-08T12:06:23.841Z,12.40
2022-12-08T12:09:08.718Z,10.43
2022-12-08T12:12:04.216Z,12.43
2022-12-08T12:14:57.887Z,8.13
2022-12-08T12:17:42.616Z,9.23
2022-12-08T12:20:20.784Z,9.67
2022-12-08T12:22:56.821Z,11.03
2022-12-08T12:25:27.713Z,11.20
2022-12-08T12:28:01.059Z,10.40
2022-12-08T12:30:33.273Z,13.67
2022-12-08T12:33:03.081Z,18.10
2022-12-08T12:35:37.421Z,10.27
2022-12-08T12:38:29.423Z,15.93
2022-12-08T12:41:02.260Z,13.83
2022-12-08T12:43:34.102Z,9.03
2022-12-08T12:46:40.991Z,10.00
2022-12-08T12:49:51.459Z,14.03
2022-12-08T12:52:41.692Z,14.53
2022-12-08T12:55:55.102Z,11.60
2022-12-08T12:58:42.680Z,12.00
2022-12-08T13:01:56.597Z,11.50
2022-12-08T13:04:34.341Z,12.83
2022-12-08T13:07:02.686Z,11.67
2022-12-08T13:23:04.498Z,12.13
2022-12-08T13:26:16.762Z,12.27
2022-12-08T13:29:21.544Z,14.50
2022-12-08T13:31:52.767Z,10.57
2022-12-08T13:34:26.524Z,12.13
2022-12-08T13:37:02.162Z,14.20
2022-12-08T13:39:37.816Z,11.60
2022-12-08T13:42:13.397Z,16.50
2022-12-08T13:47:54.328Z,17.00
2022-12-08T13:59:24.398Z,10.90
2022-12-08T14:01:52.896Z,9.53
2022-12-08T14:04:42.540Z,9.50
2022-12-08T14:07:13.035Z,10.50
2022-12-08T14:09:42.196Z,11.17
2022-12-08T14:12:20.625Z,7.67
2022-12-08T14:15:03.041Z,10.83
2022-12-08T14:17:31.820Z,10.77
2022-12-08T14:20:01.631Z,7.60
2022-12-08T14:22:35.107Z,7.73
2022-12-08T14:25:03.591Z,9.47
2022-12-08T14:27:37.319Z,7.57
2022-12-08T14:30:09.276Z,6.37
2022-12-08T14:32:44.285Z,12.33
2022-12-08T14:35:21.670Z,6.23
2022-12-08T14:37:52.162Z,8.63
2022-12-08T14:40:25.453Z,7.67
2022-12-08T14:43:12.546Z,10.20
2022-12-08T14:45:48.563Z,14.33
2022-12-08T14:48:25.450Z,10.60
2022-12-08T14:57:53.210Z,8.40
2022-12-08T15:00:23.250Z,7.33
